In Rescue
 
Open Full Screen Window  High Contrast Mode
April 23, 2019 11:02 PM PDT
Weather Information
Wind Direction
  ---
Wind Speed
  00 kt (0 mph)
Wind Gust
  00 kt (0 mph)
Altimeter
29.99 in
Visibility
10 SM
Temperature
20° C
68° F
Dewpoint
10° C
50° F
Humidity
53%
1hr Rain Fall
00.00 in.
24hr Rain Fall
00.00 in.
Sky Condition
Clear
VFR

METAR KSBD 240602Z AUTO 00000KT 10SM CLR 20/10 A2999 RMK AO2 T02020099

FAA Disclaimer: The data displayed is for advisory purposes only and is not to be used for flight planning or operations.